SWA451 KSRQ-KMCO
Flight info
| Callsign | SWA451 |
|---|---|
| Flight time | 0h 28m |
| Altitude | 15000 |
| Route | PRICY MINEE MINEE6 |
| Aircraft | B738/M-SDE2E3FGHIRWXY/LB1 |
Departure
| Time | 2026-04-19 03:14 |
|---|---|
| Airport | Sarasota Bradenton International Airport (KSRQ) |
Arrival
| Time | 2026-04-19 03:43 |
|---|---|
| Airport | Orlando International Airport (KMCO) |
| Time | Latitude | Longitude | Altitude | Speed | Heading |
|---|---|---|---|---|---|
| 2026-04-19 03:01 | 27.39014 | -82.55315 | 33 ft | 0 kts | 245° |
| 2026-04-19 03:08 | 27.39017 | -82.55310 | 32 ft | 2 kts | 245° |
| 2026-04-19 03:09 | 27.39023 | -82.55293 | 31 ft | 2 kts | 245° |
| 2026-04-19 03:09 | 27.39030 | -82.55277 | 30 ft | 2 kts | 245° |
| 2026-04-19 03:09 | 27.39038 | -82.55260 | 31 ft | 2 kts | 220° |
| 2026-04-19 03:09 | 27.39050 | -82.55254 | 30 ft | 1 kts | 160° |
| 2026-04-19 03:10 | 27.39055 | -82.55256 | 30 ft | 0 kts | 153° |
| 2026-04-19 03:11 | 27.39054 | -82.55256 | 30 ft | 2 kts | 153° |
| 2026-04-19 03:11 | 27.39008 | -82.55220 | 34 ft | 14 kts | 144° |
| 2026-04-19 03:11 | 27.38918 | -82.55130 | 34 ft | 19 kts | 126° |
| 2026-04-19 03:12 | 27.38838 | -82.55020 | 37 ft | 18 kts | 135° |
| 2026-04-19 03:12 | 27.38819 | -82.54896 | 38 ft | 17 kts | 75° |
| 2026-04-19 03:12 | 27.38756 | -82.54788 | 36 ft | 17 kts | 133° |
| 2026-04-19 03:12 | 27.38675 | -82.54695 | 36 ft | 16 kts | 135° |
| 2026-04-19 03:13 | 27.38595 | -82.54601 | 37 ft | 13 kts | 127° |
| 2026-04-19 03:13 | 27.38618 | -82.54511 | 32 ft | 14 kts | 37° |
| 2026-04-19 03:13 | 27.38698 | -82.54551 | 35 ft | 15 kts | 314° |
| 2026-04-19 03:13 | 27.38910 | -82.54791 | 35 ft | 80 kts | 315° |
| 2026-04-19 03:14 | 27.39470 | -82.55427 | 33 ft | 146 kts | 315° |
| 2026-04-19 03:14 | 27.40289 | -82.56350 | 284 ft | 182 kts | 317° |
| 2026-04-19 03:14 | 27.41273 | -82.57418 | 771 ft | 208 kts | 318° |
| 2026-04-19 03:14 | 27.42366 | -82.58635 | 981 ft | 236 kts | 324° |
| 2026-04-19 03:15 | 27.43949 | -82.59130 | 1564 ft | 241 kts | 7° |
| 2026-04-19 03:15 | 27.45471 | -82.58356 | 2317 ft | 253 kts | 41° |
| 2026-04-19 03:15 | 27.46476 | -82.56669 | 2965 ft | 265 kts | 65° |
| 2026-04-19 03:15 | 27.47262 | -82.54770 | 3794 ft | 270 kts | 66° |
| 2026-04-19 03:16 | 27.48124 | -82.52897 | 4774 ft | 268 kts | 62° |
| 2026-04-19 03:16 | 27.49128 | -82.51121 | 5681 ft | 271 kts | 57° |
| 2026-04-19 03:16 | 27.50286 | -82.49408 | 6444 ft | 279 kts | 52° |
| 2026-04-19 03:16 | 27.51577 | -82.47750 | 7211 ft | 283 kts | 48° |
| 2026-04-19 03:17 | 27.52939 | -82.46168 | 7981 ft | 287 kts | 45° |
| 2026-04-19 03:17 | 27.54389 | -82.44603 | 8777 ft | 290 kts | 42° |
| 2026-04-19 03:17 | 27.55888 | -82.43065 | 9591 ft | 293 kts | 40° |
| 2026-04-19 03:17 | 27.57428 | -82.41539 | 10299 ft | 299 kts | 39° |
| 2026-04-19 03:18 | 27.59065 | -82.39958 | 10523 ft | 323 kts | 39° |
| 2026-04-19 03:18 | 27.60841 | -82.38270 | 10689 ft | 345 kts | 38° |
| 2026-04-19 03:18 | 27.62726 | -82.36496 | 11035 ft | 359 kts | 38° |
| 2026-04-19 03:18 | 27.64661 | -82.34685 | 11626 ft | 364 kts | 38° |
| 2026-04-19 03:19 | 27.66615 | -82.32862 | 12290 ft | 367 kts | 38° |
| 2026-04-19 03:19 | 27.68593 | -82.31021 | 12920 ft | 371 kts | 38° |
| 2026-04-19 03:19 | 27.70487 | -82.29260 | 13498 ft | 375 kts | 38° |
| 2026-04-19 03:19 | 27.72505 | -82.27386 | 14074 ft | 379 kts | 38° |
| 2026-04-19 03:20 | 27.74547 | -82.25488 | 14650 ft | 381 kts | 38° |
| 2026-04-19 03:20 | 27.76605 | -82.23574 | 14950 ft | 383 kts | 38° |
| 2026-04-19 03:20 | 27.78705 | -82.21622 | 15000 ft | 398 kts | 38° |
| 2026-04-19 03:20 | 27.80879 | -82.19599 | 15015 ft | 412 kts | 38° |
| 2026-04-19 03:21 | 27.83116 | -82.17517 | 15014 ft | 420 kts | 38° |
| 2026-04-19 03:21 | 27.85364 | -82.15421 | 15003 ft | 417 kts | 38° |
| 2026-04-19 03:21 | 27.87599 | -82.13336 | 15002 ft | 416 kts | 38° |
| 2026-04-19 03:21 | 27.89833 | -82.11251 | 15003 ft | 415 kts | 38° |
| 2026-04-19 03:22 | 27.92058 | -82.09173 | 15006 ft | 415 kts | 38° |
| 2026-04-19 03:22 | 27.94238 | -82.07137 | 15009 ft | 415 kts | 38° |
| 2026-04-19 03:22 | 27.96349 | -82.05164 | 14998 ft | 405 kts | 38° |
| 2026-04-19 03:22 | 27.98478 | -82.03172 | 14957 ft | 390 kts | 38° |
| 2026-04-19 03:23 | 28.00563 | -82.01222 | 14599 ft | 388 kts | 38° |
| 2026-04-19 03:23 | 28.02642 | -81.99277 | 14153 ft | 386 kts | 39° |
| 2026-04-19 03:23 | 28.04533 | -81.97128 | 13667 ft | 386 kts | 51° |
| 2026-04-19 03:23 | 28.05984 | -81.94576 | 13165 ft | 385 kts | 62° |
| 2026-04-19 03:24 | 28.06977 | -81.91786 | 12681 ft | 384 kts | 71° |
| 2026-04-19 03:24 | 28.07768 | -81.88912 | 12220 ft | 381 kts | 72° |
| 2026-04-19 03:24 | 28.08541 | -81.86043 | 11731 ft | 379 kts | 72° |
| 2026-04-19 03:24 | 28.09319 | -81.83197 | 11260 ft | 376 kts | 71° |
| 2026-04-19 03:25 | 28.10093 | -81.80427 | 10885 ft | 362 kts | 71° |
| 2026-04-19 03:25 | 28.10840 | -81.77783 | 10731 ft | 342 kts | 71° |
| 2026-04-19 03:25 | 28.11549 | -81.75279 | 10579 ft | 325 kts | 71° |
| 2026-04-19 03:25 | 28.12361 | -81.72948 | 10448 ft | 316 kts | 62° |
| 2026-04-19 03:26 | 28.13402 | -81.70777 | 10298 ft | 312 kts | 58° |
| 2026-04-19 03:26 | 28.14482 | -81.68672 | 10161 ft | 305 kts | 58° |
| 2026-04-19 03:26 | 28.15535 | -81.66623 | 10029 ft | 298 kts | 58° |
| 2026-04-19 03:26 | 28.16558 | -81.64605 | 9821 ft | 294 kts | 59° |
| 2026-04-19 03:27 | 28.17552 | -81.62618 | 9533 ft | 293 kts | 59° |
| 2026-04-19 03:27 | 28.18543 | -81.60611 | 9246 ft | 291 kts | 60° |
| 2026-04-19 03:27 | 28.19526 | -81.58610 | 8956 ft | 290 kts | 60° |
| 2026-04-19 03:27 | 28.20505 | -81.56613 | 8657 ft | 289 kts | 60° |
| 2026-04-19 03:28 | 28.21479 | -81.54623 | 8411 ft | 288 kts | 60° |
| 2026-04-19 03:28 | 28.22443 | -81.52652 | 8117 ft | 283 kts | 60° |
| 2026-04-19 03:28 | 28.23383 | -81.50727 | 8019 ft | 275 kts | 61° |
| 2026-04-19 03:28 | 28.24298 | -81.48851 | 8001 ft | 268 kts | 61° |
| 2026-04-19 03:29 | 28.25179 | -81.47042 | 7984 ft | 256 kts | 60° |
| 2026-04-19 03:29 | 28.26118 | -81.45394 | 7972 ft | 242 kts | 45° |
| 2026-04-19 03:29 | 28.27449 | -81.44337 | 7986 ft | 228 kts | 19° |
| 2026-04-19 03:29 | 28.28979 | -81.44021 | 8009 ft | 224 kts | 1° |
| 2026-04-19 03:30 | 28.30573 | -81.44015 | 8015 ft | 232 kts | 359° |
| 2026-04-19 03:30 | 28.32189 | -81.44042 | 8015 ft | 237 kts | 358° |
| 2026-04-19 03:30 | 28.33848 | -81.44074 | 8006 ft | 234 kts | 358° |
| 2026-04-19 03:30 | 28.35453 | -81.44106 | 7906 ft | 235 kts | 358° |
| 2026-04-19 03:31 | 28.37085 | -81.44140 | 7663 ft | 234 kts | 358° |
| 2026-04-19 03:31 | 28.38720 | -81.44177 | 7298 ft | 236 kts | 358° |
| 2026-04-19 03:31 | 28.40366 | -81.44219 | 6920 ft | 237 kts | 358° |
| 2026-04-19 03:31 | 28.42013 | -81.44259 | 6602 ft | 236 kts | 358° |
| 2026-04-19 03:32 | 28.43647 | -81.44299 | 6265 ft | 233 kts | 358° |
| 2026-04-19 03:32 | 28.45266 | -81.44340 | 5898 ft | 233 kts | 358° |
| 2026-04-19 03:32 | 28.46882 | -81.44380 | 5546 ft | 230 kts | 358° |
| 2026-04-19 03:32 | 28.48446 | -81.44419 | 5359 ft | 220 kts | 358° |
| 2026-04-19 03:33 | 28.49967 | -81.44458 | 5048 ft | 217 kts | 358° |
| 2026-04-19 03:33 | 28.51469 | -81.44499 | 4747 ft | 214 kts | 358° |
| 2026-04-19 03:33 | 28.52916 | -81.44541 | 4552 ft | 205 kts | 358° |
| 2026-04-19 03:33 | 28.54331 | -81.44582 | 4264 ft | 202 kts | 358° |
| 2026-04-19 03:34 | 28.55733 | -81.44623 | 4031 ft | 201 kts | 358° |
| 2026-04-19 03:34 | 28.57143 | -81.44665 | 4017 ft | 205 kts | 358° |
| 2026-04-19 03:34 | 28.58565 | -81.44708 | 3982 ft | 203 kts | 358° |
| 2026-04-19 03:34 | 28.59970 | -81.44752 | 3972 ft | 200 kts | 358° |
| 2026-04-19 03:35 | 28.61362 | -81.44797 | 3978 ft | 201 kts | 358° |
| 2026-04-19 03:35 | 28.62747 | -81.44842 | 3986 ft | 202 kts | 358° |
| 2026-04-19 03:35 | 28.64147 | -81.44888 | 3980 ft | 202 kts | 358° |
| 2026-04-19 03:35 | 28.65524 | -81.44701 | 3875 ft | 199 kts | 21° |
| 2026-04-19 03:36 | 28.66648 | -81.43816 | 3577 ft | 199 kts | 50° |
| 2026-04-19 03:36 | 28.67246 | -81.42403 | 3231 ft | 201 kts | 79° |
| 2026-04-19 03:36 | 28.67403 | -81.40820 | 3024 ft | 201 kts | 83° |
| 2026-04-19 03:36 | 28.67552 | -81.39219 | 3003 ft | 204 kts | 83° |
| 2026-04-19 03:37 | 28.67701 | -81.37621 | 2981 ft | 202 kts | 83° |
| 2026-04-19 03:37 | 28.67845 | -81.36026 | 2978 ft | 203 kts | 86° |
| 2026-04-19 03:37 | 28.67571 | -81.34476 | 2962 ft | 203 kts | 124° |
| 2026-04-19 03:37 | 28.66442 | -81.33560 | 2987 ft | 205 kts | 167° |
| 2026-04-19 03:38 | 28.65031 | -81.33279 | 2989 ft | 206 kts | 172° |
| 2026-04-19 03:38 | 28.63671 | -81.33056 | 2968 ft | 193 kts | 173° |
| 2026-04-19 03:38 | 28.62372 | -81.32929 | 2965 ft | 184 kts | 178° |
| 2026-04-19 03:38 | 28.61112 | -81.32883 | 2993 ft | 181 kts | 180° |
| 2026-04-19 03:39 | 28.59895 | -81.32862 | 2926 ft | 169 kts | 180° |
| 2026-04-19 03:39 | 28.58736 | -81.32850 | 2744 ft | 165 kts | 181° |
| 2026-04-19 03:39 | 28.57610 | -81.32837 | 2553 ft | 160 kts | 180° |
| 2026-04-19 03:39 | 28.56495 | -81.32821 | 2360 ft | 163 kts | 180° |
| 2026-04-19 03:40 | 28.55347 | -81.32810 | 2134 ft | 166 kts | 180° |
| 2026-04-19 03:40 | 28.54199 | -81.32798 | 1913 ft | 164 kts | 180° |
| 2026-04-19 03:40 | 28.53068 | -81.32787 | 1697 ft | 161 kts | 180° |
| 2026-04-19 03:40 | 28.51952 | -81.32775 | 1487 ft | 159 kts | 180° |
| 2026-04-19 03:41 | 28.50863 | -81.32763 | 1272 ft | 154 kts | 179° |
| 2026-04-19 03:41 | 28.49807 | -81.32751 | 1076 ft | 150 kts | 179° |
| 2026-04-19 03:41 | 28.48754 | -81.32744 | 830 ft | 151 kts | 178° |
| 2026-04-19 03:41 | 28.47718 | -81.32724 | 654 ft | 147 kts | 179° |
| 2026-04-19 03:42 | 28.46684 | -81.32714 | 477 ft | 150 kts | 179° |
| 2026-04-19 03:42 | 28.45659 | -81.32702 | 329 ft | 149 kts | 179° |
| 2026-04-19 03:42 | 28.44635 | -81.32694 | 151 ft | 145 kts | 179° |
| 2026-04-19 03:42 | 28.43686 | -81.32688 | 105 ft | 122 kts | 180° |
| 2026-04-19 03:43 | 28.42976 | -81.32678 | 107 ft | 70 kts | 179° |
| 2026-04-19 03:43 | 28.42693 | -81.32655 | 101 ft | 32 kts | 160° |
| 2026-04-19 03:43 | 28.42589 | -81.32549 | 103 ft | 2 kts | 121° |
| 2026-04-19 03:44 | 28.42585 | -81.32541 | 104 ft | 6 kts | 121° |
| 2026-04-19 03:44 | 28.42539 | -81.32452 | 105 ft | 20 kts | 119° |
| 2026-04-19 03:44 | 28.42483 | -81.32341 | 106 ft | 27 kts | 120° |
| 2026-04-19 03:45 | 28.42392 | -81.32163 | 110 ft | 25 kts | 121° |
| 2026-04-19 03:45 | 28.42346 | -81.31986 | 108 ft | 23 kts | 90° |
| 2026-04-19 03:45 | 28.42346 | -81.31809 | 106 ft | 22 kts | 88° |
| 2026-04-19 03:45 | 28.42400 | -81.31667 | 104 ft | 18 kts | 31° |
| 2026-04-19 03:46 | 28.42494 | -81.31576 | 101 ft | 16 kts | 64° |
| 2026-04-19 03:46 | 28.42529 | -81.31507 | 100 ft | 10 kts | 19° |
| 2026-04-19 03:46 | 28.42570 | -81.31500 | 101 ft | 0 kts | 6° |